createdAt,value
2023-03-05T00:00:39.628Z,0.68
2023-03-05T00:03:06.117Z,0.50
2023-03-05T00:05:32.553Z,0.50
2023-03-05T00:07:58.981Z,0.82
2023-03-05T00:10:25.396Z,0.57
2023-03-05T00:12:52.454Z,0.73
2023-03-05T00:15:18.825Z,0.50
2023-03-05T00:17:45.255Z,0.57
2023-03-05T00:20:11.953Z,0.45
2023-03-05T00:22:38.375Z,0.50
2023-03-05T00:25:05.239Z,0.47
2023-03-05T00:27:31.671Z,0.40
2023-03-05T00:29:58.150Z,0.68
2023-03-05T00:32:24.664Z,0.63
2023-03-05T00:34:51.174Z,0.60
2023-03-05T00:37:17.627Z,0.60
2023-03-05T00:39:44.065Z,0.38
2023-03-05T00:42:10.455Z,0.60
2023-03-05T00:44:36.886Z,0.50
2023-03-05T00:47:03.338Z,0.85
2023-03-05T00:49:29.787Z,0.63
2023-03-05T00:51:56.185Z,0.40
2023-03-05T00:54:22.595Z,0.60
2023-03-05T00:56:49.013Z,0.80
2023-03-05T00:59:15.453Z,0.73
2023-03-05T01:01:41.920Z,1.08
2023-03-05T01:04:08.536Z,1.60
2023-03-05T01:06:34.971Z,0.70
2023-03-05T01:09:01.374Z,0.50
2023-03-05T01:11:27.840Z,0.70
2023-03-05T01:13:54.310Z,0.55
2023-03-05T01:16:20.799Z,0.70
2023-03-05T01:18:47.317Z,0.60
2023-03-05T01:21:13.728Z,0.57
2023-03-05T01:23:40.207Z,0.43
2023-03-05T01:26:06.623Z,0.45
2023-03-05T01:28:33.060Z,0.70
2023-03-05T01:31:00.581Z,0.30
2023-03-05T01:33:27.033Z,0.57
2023-03-05T01:35:53.525Z,0.40
2023-03-05T01:38:19.975Z,0.40
2023-03-05T01:40:46.391Z,0.52
2023-03-05T01:43:12.688Z,0.30
2023-03-05T01:45:40.463Z,0.55
2023-03-05T01:48:06.890Z,0.30
2023-03-05T01:50:33.331Z,0.38
2023-03-05T01:53:01.845Z,0.63
2023-03-05T01:55:28.802Z,0.70
2023-03-05T01:58:03.717Z,0.60
2023-03-05T02:00:49.439Z,0.30
2023-03-05T02:03:15.874Z,0.73
2023-03-05T02:05:42.471Z,0.38
2023-03-05T02:08:13.490Z,0.40
2023-03-05T02:10:50.092Z,0.20
2023-03-05T02:13:21.635Z,0.50
2023-03-05T02:15:48.264Z,0.90
2023-03-05T02:18:14.683Z,0.85
2023-03-05T02:20:48.123Z,0.50
2023-03-05T02:23:14.546Z,0.75
2023-03-05T02:25:41.070Z,0.60
2023-03-05T02:28:18.549Z,0.63
2023-03-05T02:30:45.005Z,0.40
2023-03-05T02:33:12.811Z,0.73
2023-03-05T02:35:39.248Z,1.65
2023-03-05T02:38:05.681Z,0.77
2023-03-05T02:40:32.056Z,0.70
2023-03-05T02:42:58.497Z,0.82
2023-03-05T02:45:24.879Z,0.60
2023-03-05T02:47:51.312Z,0.45
2023-03-05T02:50:17.777Z,0.82
2023-03-05T02:52:44.201Z,0.65
2023-03-05T02:55:10.670Z,0.65
2023-03-05T02:57:37.114Z,0.90
2023-03-05T03:00:04.686Z,0.73
2023-03-05T03:02:31.174Z,0.75
2023-03-05T03:04:57.575Z,0.90
2023-03-05T03:07:24.008Z,0.80
2023-03-05T03:09:50.543Z,0.90
2023-03-05T03:12:16.978Z,1.10
2023-03-05T03:14:43.429Z,1.38
2023-03-05T03:17:14.100Z,0.65
2023-03-05T03:19:40.611Z,1.10
2023-03-05T03:22:07.344Z,1.27
2023-03-05T03:24:33.920Z,1.00
2023-03-05T03:27:00.402Z,0.60
2023-03-05T03:29:26.825Z,0.77
2023-03-05T03:31:53.322Z,0.70
2023-03-05T03:34:19.920Z,0.73
2023-03-05T03:36:46.560Z,1.20
2023-03-05T03:39:13.049Z,0.60
2023-03-05T03:41:46.141Z,0.55
2023-03-05T03:44:12.836Z,0.55
2023-03-05T03:46:39.589Z,1.00
2023-03-05T03:49:06.791Z,0.90
2023-03-05T03:51:33.205Z,0.70
2023-03-05T03:54:00.013Z,0.55
2023-03-05T03:56:26.646Z,0.30
2023-03-05T03:58:53.388Z,0.82
2023-03-05T04:01:20.594Z,0.57
2023-03-05T04:03:47.024Z,0.90
2023-03-05T04:06:13.492Z,0.50
2023-03-05T04:08:39.938Z,0.47
2023-03-05T04:11:06.329Z,0.60
2023-03-05T04:13:32.806Z,0.40
2023-03-05T04:15:59.282Z,0.30
2023-03-05T04:18:25.801Z,0.75
2023-03-05T04:20:52.188Z,0.85
2023-03-05T04:23:18.671Z,0.60
2023-03-05T04:25:45.053Z,0.50
2023-03-05T04:28:11.759Z,0.57
2023-03-05T04:30:38.168Z,0.50
2023-03-05T04:33:04.582Z,0.45
2023-03-05T04:35:31.013Z,0.65
2023-03-05T04:37:57.498Z,0.50
2023-03-05T04:40:24.023Z,0.50
2023-03-05T04:42:50.551Z,0.50
2023-03-05T04:45:16.960Z,0.95
2023-03-05T04:47:43.654Z,0.50
2023-03-05T04:50:10.833Z,0.50
2023-03-05T04:52:41.133Z,0.90
2023-03-05T04:55:08.100Z,0.40
2023-03-05T04:57:35.035Z,0.65
2023-03-05T05:00:01.543Z,0.60
2023-03-05T05:02:27.999Z,0.40
2023-03-05T05:04:54.427Z,0.20
2023-03-05T05:07:21.108Z,0.40
2023-03-05T05:09:47.533Z,0.30
2023-03-05T05:12:13.933Z,0.50
2023-03-05T05:14:40.337Z,0.47
2023-03-05T05:17:06.772Z,0.40
2023-03-05T05:19:34.019Z,0.20
2023-03-05T05:22:00.608Z,0.82
2023-03-05T05:24:27.069Z,0.20
2023-03-05T05:26:56.277Z,0.35
2023-03-05T05:29:22.826Z,0.60
2023-03-05T05:31:49.257Z,0.40
2023-03-05T05:34:15.975Z,0.45
2023-03-05T05:36:42.391Z,0.20
2023-03-05T05:39:08.776Z,0.22
2023-03-05T05:41:35.192Z,0.52
2023-03-05T05:44:01.644Z,0.30
2023-03-05T05:46:28.077Z,0.70
2023-03-05T05:48:54.530Z,0.40
2023-03-05T05:51:22.310Z,0.32
2023-03-05T05:53:49.055Z,0.10
2023-03-05T05:56:15.596Z,0.30
2023-03-05T05:58:42.151Z,0.22
2023-03-05T06:01:15.925Z,0.40
2023-03-05T06:03:42.336Z,0.20
2023-03-05T06:06:12.902Z,0.25
2023-03-05T06:08:39.438Z,0.20
2023-03-05T06:11:06.453Z,0.30
2023-03-05T06:13:33.024Z,0.28
2023-03-05T06:16:00.403Z,0.35
2023-03-05T06:18:26.921Z,0.30
2023-03-05T06:21:00.555Z,0.22
2023-03-05T06:23:27.114Z,0.45
2023-03-05T06:25:53.680Z,0.32
2023-03-05T06:28:20.679Z,0.10
2023-03-05T06:30:47.250Z,0.10
2023-03-05T06:33:13.651Z,0.68
2023-03-05T06:35:40.250Z,0.10
2023-03-05T06:38:07.456Z,0.20
2023-03-05T06:40:34.196Z,0.43
2023-03-05T06:43:00.613Z,0.40
2023-03-05T06:45:27.129Z,0.10
2023-03-05T06:47:53.553Z,0.38
2023-03-05T06:50:19.976Z,0.40
2023-03-05T06:52:49.277Z,0.28
2023-03-05T06:55:15.689Z,0.30
2023-03-05T06:57:42.103Z,0.40
2023-03-05T07:00:09.086Z,0.28
2023-03-05T07:02:39.385Z,0.30
2023-03-05T07:05:06.685Z,0.20
2023-03-05T07:07:33.375Z,0.32
2023-03-05T07:09:59.850Z,0.75
2023-03-05T07:12:29.030Z,0.50
2023-03-05T07:14:55.399Z,0.52
2023-03-05T07:17:21.844Z,0.30
2023-03-05T07:19:48.236Z,0.32
2023-03-05T07:22:14.657Z,0.17
2023-03-05T07:24:41.046Z,0.40
2023-03-05T07:27:07.496Z,0.32
2023-03-05T07:29:33.904Z,0.40
2023-03-05T07:32:00.353Z,0.43
2023-03-05T07:34:27.299Z,0.38
2023-03-05T07:36:53.909Z,0.47
2023-03-05T07:39:20.334Z,0.43
2023-03-05T07:41:47.019Z,0.70
2023-03-05T07:44:13.446Z,0.22
2023-03-05T07:46:39.910Z,0.35
2023-03-05T07:49:06.424Z,0.70
2023-03-05T07:51:32.824Z,0.32
2023-03-05T07:54:00.246Z,0.40
2023-03-05T07:56:34.487Z,0.40
2023-03-05T07:59:05.762Z,0.98
2023-03-05T08:01:32.274Z,0.65
2023-03-05T08:03:58.740Z,0.50
2023-03-05T08:06:25.171Z,0.82
2023-03-05T08:08:51.616Z,0.77
2023-03-05T08:11:18.058Z,0.93
2023-03-05T08:13:44.598Z,0.80
2023-03-05T08:16:18.751Z,0.35
2023-03-05T08:18:45.636Z,0.30
2023-03-05T08:21:19.664Z,0.82
2023-03-05T08:23:46.114Z,0.40
2023-03-05T08:26:17.060Z,0.55
2023-03-05T08:28:43.879Z,0.70
2023-03-05T08:31:11.180Z,0.88
2023-03-05T08:33:37.653Z,0.60
2023-03-05T08:36:04.488Z,0.47
2023-03-05T08:38:30.907Z,0.98
2023-03-05T08:40:57.291Z,1.05
2023-03-05T08:43:23.708Z,0.70
2023-03-05T08:45:50.151Z,1.00
2023-03-05T08:48:16.545Z,0.77
2023-03-05T08:50:42.977Z,0.70
2023-03-05T08:53:09.395Z,0.70
2023-03-05T08:55:35.807Z,0.90
2023-03-05T08:58:02.238Z,1.10
2023-03-05T09:00:28.696Z,0.60
2023-03-05T09:02:55.212Z,0.60
2023-03-05T09:05:21.766Z,0.95
2023-03-05T09:07:48.177Z,0.52
2023-03-05T09:10:14.634Z,0.57
2023-03-05T09:12:41.694Z,0.85
2023-03-05T09:15:08.561Z,0.60
2023-03-05T09:17:36.117Z,0.73
2023-03-05T09:20:03.181Z,0.20
2023-03-05T09:22:29.672Z,0.50
2023-03-05T09:24:56.122Z,0.40
2023-03-05T09:27:22.580Z,0.30
2023-03-05T09:29:49.270Z,0.32
2023-03-05T09:32:15.947Z,0.25
2023-03-05T09:34:42.396Z,1.13
2023-03-05T09:37:08.979Z,0.17
2023-03-05T09:39:35.419Z,0.30
2023-03-05T09:42:04.442Z,0.50
2023-03-05T09:44:58.185Z,0.32
2023-03-05T09:47:39.618Z,0.47
2023-03-05T09:50:36.404Z,0.25
2023-03-05T09:53:04.292Z,0.45
2023-03-05T09:55:41.773Z,0.50
2023-03-05T09:58:11.608Z,0.40
2023-03-05T10:00:48.448Z,0.50
2023-03-05T10:03:39.081Z,0.28
2023-03-05T10:06:23.835Z,0.22
2023-03-05T10:09:08.425Z,0.30
2023-03-05T10:11:54.134Z,0.20
2023-03-05T10:14:29.162Z,0.30
2023-03-05T10:17:33.051Z,0.22
2023-03-05T10:20:33.244Z,0.55
2023-03-05T10:23:08.578Z,0.90
2023-03-05T10:25:40.955Z,0.57
2023-03-05T10:28:12.423Z,1.00
2023-03-05T10:31:08.098Z,1.10
2023-03-05T10:33:37.542Z,0.95
2023-03-05T10:36:22.756Z,1.10
2023-03-05T10:39:13.270Z,0.80
2023-03-05T10:41:45.297Z,0.80
2023-03-05T10:44:15.971Z,0.90
2023-03-05T10:46:42.388Z,0.40
2023-03-05T10:49:16.110Z,0.45
2023-03-05T10:51:52.605Z,0.43
2023-03-05T10:54:28.563Z,0.35
2023-03-05T10:57:13.683Z,0.60
2023-03-05T10:59:46.933Z,0.60
2023-03-05T11:02:13.491Z,0.50
2023-03-05T11:04:40.050Z,0.28
2023-03-05T11:07:16.483Z,0.25
2023-03-05T11:09:43.533Z,0.95
2023-03-05T11:12:12.819Z,0.35
2023-03-05T11:14:41.646Z,0.40
2023-03-05T11:17:26.829Z,0.50
2023-03-05T11:19:53.246Z,0.45
2023-03-05T11:22:21.609Z,0.28
2023-03-05T11:25:10.750Z,1.25
2023-03-05T11:27:39.013Z,0.45
2023-03-05T11:30:32.479Z,0.50
2023-03-05T11:33:18.508Z,0.70
2023-03-05T11:35:45.158Z,0.40
2023-03-05T11:38:22.894Z,0.40
2023-03-05T11:40:49.381Z,0.70
2023-03-05T11:43:17.676Z,0.90
2023-03-05T11:45:44.144Z,0.65
2023-03-05T11:48:20.844Z,0.70
2023-03-05T11:50:53.348Z,0.32
2023-03-05T11:53:24.388Z,0.38
2023-03-05T11:56:03.979Z,0.50
2023-03-05T11:58:36.383Z,0.40
2023-03-05T12:01:03.662Z,0.30
2023-03-05T12:03:36.159Z,0.30
2023-03-05T12:06:26.643Z,0.45
2023-03-05T12:08:55.233Z,0.10
2023-03-05T12:11:27.003Z,0.20
2023-03-05T12:13:57.002Z,0.40
2023-03-05T12:16:28.350Z,0.43
2023-03-05T12:19:24.688Z,0.20
2023-03-05T12:21:51.577Z,0.60
2023-03-05T12:24:26.030Z,0.20
2023-03-05T12:26:55.059Z,0.20
2023-03-05T12:29:44.121Z,0.40
2023-03-05T12:32:22.921Z,0.15
2023-03-05T12:35:02.935Z,0.30
2023-03-05T12:37:29.263Z,0.20
2023-03-05T12:40:11.302Z,0.32
2023-03-05T12:42:37.611Z,0.32
2023-03-05T12:45:10.069Z,0.52
2023-03-05T12:47:46.416Z,0.17
2023-03-05T12:50:39.268Z,0.10
2023-03-05T12:53:11.485Z,0.20
2023-03-05T12:55:44.035Z,0.10
2023-03-05T12:58:11.930Z,0.10
2023-03-05T13:01:02.681Z,0.20
2023-03-05T13:03:31.030Z,0.20
2023-03-05T13:05:58.553Z,0.20
2023-03-05T13:08:29.552Z,0.22
2023-03-05T13:11:00.948Z,0.10
2023-03-05T13:13:28.672Z,0.20
2023-03-05T13:15:55.180Z,0.10
2023-03-05T13:18:26.500Z,0.20
2023-03-05T13:21:07.283Z,1.13
2023-03-05T13:23:37.076Z,0.35
2023-03-05T13:26:09.775Z,0.10
2023-03-05T13:28:36.694Z,0.10
2023-03-05T13:31:04.773Z,0.15
2023-03-05T13:33:33.427Z,0.50
2023-03-05T13:35:59.887Z,0.40
2023-03-05T13:38:34.030Z,0.38
2023-03-05T13:41:04.982Z,0.13
2023-03-05T13:43:32.056Z,0.25
2023-03-05T13:45:58.783Z,0.20
2023-03-05T13:48:26.430Z,0.35
2023-03-05T13:50:56.898Z,0.20
2023-03-05T13:53:24.294Z,0.30
2023-03-05T13:55:52.310Z,0.20
2023-03-05T13:58:50.594Z,0.47
2023-03-05T14:01:32.845Z,0.28
2023-03-05T14:04:15.815Z,0.20
2023-03-05T14:07:04.160Z,0.38
2023-03-05T14:09:42.163Z,0.30
2023-03-05T14:12:21.400Z,0.25
2023-03-05T14:14:49.023Z,0.60
2023-03-05T14:17:23.385Z,0.95
2023-03-05T14:19:49.882Z,1.10
2023-03-05T14:22:35.979Z,0.60
2023-03-05T14:25:06.252Z,0.80
2023-03-05T14:27:36.154Z,0.38
2023-03-05T14:32:34.427Z,0.65
2023-03-05T14:35:01.714Z,0.30
2023-03-05T14:37:36.043Z,0.10
2023-03-05T14:40:07.417Z,0.63
2023-03-05T14:42:37.672Z,0.30
2023-03-05T14:45:16.480Z,0.22
2023-03-05T14:47:43.111Z,0.22
2023-03-05T14:50:42.152Z,0.30
2023-03-05T14:53:10.672Z,0.50
2023-03-05T14:55:37.084Z,0.30
2023-03-05T14:58:14.093Z,0.45
2023-03-05T15:00:40.550Z,0.32
2023-03-05T15:03:07.100Z,0.73
2023-03-05T15:05:33.496Z,0.40
2023-03-05T15:07:59.930Z,0.30
2023-03-05T15:10:26.364Z,0.10
2023-03-05T15:12:52.809Z,0.20
2023-03-05T15:15:19.733Z,0.30
2023-03-05T15:17:47.602Z,0.28
2023-03-05T15:20:19.586Z,0.50
2023-03-05T15:22:46.081Z,0.52
2023-03-05T15:25:12.626Z,0.60
2023-03-05T15:27:39.086Z,0.30
2023-03-05T15:30:06.826Z,0.25
2023-03-05T15:32:33.408Z,0.40
2023-03-05T15:34:59.919Z,0.20
2023-03-05T15:37:26.449Z,0.38
2023-03-05T15:39:53.118Z,0.08
2023-03-05T15:42:19.637Z,0.60
2023-03-05T15:44:46.069Z,0.32
2023-03-05T15:47:12.473Z,0.25
2023-03-05T15:49:38.955Z,0.40
2023-03-05T15:52:05.381Z,0.20
2023-03-05T15:54:31.899Z,0.30
2023-03-05T15:56:58.309Z,0.20
2023-03-05T15:59:24.775Z,0.28
2023-03-05T16:01:51.417Z,0.32
2023-03-05T16:04:18.054Z,0.20
2023-03-05T16:06:47.946Z,0.22
2023-03-05T16:11:40.725Z,0.20
2023-03-05T16:14:09.017Z,0.30
2023-03-05T16:16:35.547Z,0.45
2023-03-05T16:19:02.902Z,1.02
2023-03-05T16:21:30.620Z,1.63
2023-03-05T16:23:57.050Z,1.00
2023-03-05T16:26:23.480Z,0.80
2023-03-05T16:28:50.015Z,0.50
2023-03-05T16:31:16.515Z,0.43
2023-03-05T16:33:43.025Z,0.90
2023-03-05T16:36:18.409Z,0.40
2023-03-05T16:38:44.843Z,0.30
2023-03-05T16:41:11.635Z,0.40
2023-03-05T16:43:38.059Z,0.20
2023-03-05T16:46:04.613Z,0.40
2023-03-05T16:48:32.133Z,0.93
2023-03-05T16:50:59.613Z,1.27
2023-03-05T16:53:26.043Z,0.90
2023-03-05T16:55:52.686Z,0.55
2023-03-05T16:58:19.120Z,0.85
2023-03-05T17:00:45.664Z,0.82
2023-03-05T17:03:12.188Z,0.80
2023-03-05T17:05:38.644Z,0.57
2023-03-05T17:08:05.236Z,0.32
2023-03-05T17:10:31.882Z,0.50
2023-03-05T17:12:58.384Z,0.50
2023-03-05T17:15:24.974Z,0.70
2023-03-05T17:17:51.446Z,0.80
2023-03-05T17:20:18.245Z,0.52
2023-03-05T17:22:44.634Z,0.80
2023-03-05T17:25:11.106Z,0.73
2023-03-05T17:27:37.557Z,0.50
2023-03-05T17:30:04.750Z,0.75
2023-03-05T17:32:31.282Z,0.60
2023-03-05T17:34:57.720Z,0.35
2023-03-05T17:37:24.156Z,0.30
2023-03-05T17:39:50.628Z,0.20
2023-03-05T17:42:17.126Z,1.05
2023-03-05T17:44:43.584Z,0.60
2023-03-05T17:47:10.054Z,0.52
2023-03-05T17:49:36.460Z,0.30
2023-03-05T17:52:02.908Z,1.23
2023-03-05T17:54:29.379Z,0.40
2023-03-05T17:56:56.099Z,0.93
2023-03-05T17:59:23.101Z,0.93
2023-03-05T18:01:49.559Z,0.73
2023-03-05T18:04:16.055Z,0.60
2023-03-05T18:06:43.010Z,1.05
2023-03-05T18:09:09.547Z,0.50
2023-03-05T18:11:35.982Z,0.50
2023-03-05T18:14:02.423Z,0.60
2023-03-05T18:16:28.931Z,0.90
2023-03-05T18:18:55.367Z,0.80
2023-03-05T18:21:22.926Z,0.82
2023-03-05T18:23:49.337Z,0.90
2023-03-05T18:26:15.746Z,0.80
2023-03-05T18:28:42.184Z,1.00
2023-03-05T18:31:08.737Z,1.23
2023-03-05T18:33:35.245Z,2.00
2023-03-05T18:36:01.695Z,1.90
2023-03-05T18:38:28.704Z,2.20
2023-03-05T18:40:55.819Z,1.77
2023-03-05T18:43:22.708Z,1.67
2023-03-05T18:45:49.865Z,2.00
2023-03-05T18:48:16.302Z,1.40
2023-03-05T18:50:42.750Z,1.60
2023-03-05T18:53:11.954Z,1.25
2023-03-05T18:55:38.379Z,1.33
2023-03-05T18:58:04.826Z,1.23
2023-03-05T19:00:31.883Z,1.02
2023-03-05T19:02:58.429Z,1.27
2023-03-05T19:05:24.881Z,1.02
2023-03-05T19:07:51.368Z,1.05
2023-03-05T19:10:17.840Z,1.20
2023-03-05T19:12:44.362Z,1.17
2023-03-05T19:15:11.851Z,1.58
2023-03-05T19:17:38.347Z,1.23
2023-03-05T19:20:05.222Z,1.60
2023-03-05T19:22:32.021Z,1.48
2023-03-05T19:24:58.773Z,1.75
2023-03-05T19:27:25.560Z,1.52
2023-03-05T19:29:53.071Z,1.80
2023-03-05T19:32:19.613Z,1.80
2023-03-05T19:34:46.105Z,1.85
2023-03-05T19:37:12.515Z,1.45
2023-03-05T19:39:39.052Z,1.33
2023-03-05T19:42:05.556Z,1.40
2023-03-05T19:44:32.032Z,1.45
2023-03-05T19:46:58.449Z,1.58
2023-03-05T19:49:24.953Z,1.83
2023-03-05T19:51:51.402Z,1.85
2023-03-05T19:54:19.626Z,1.73
2023-03-05T19:56:46.348Z,1.77
2023-03-05T19:59:13.960Z,2.20
2023-03-05T20:01:40.377Z,2.65
2023-03-05T20:04:06.827Z,2.10
2023-03-05T20:06:33.391Z,2.35
2023-03-05T20:08:59.854Z,2.50
2023-03-05T20:11:26.451Z,3.08
2023-03-05T20:13:54.879Z,4.97
2023-03-05T20:16:26.342Z,5.03
2023-03-05T20:18:53.665Z,6.90
2023-03-05T20:21:25.000Z,5.03
2023-03-05T20:23:55.949Z,5.95
2023-03-05T20:26:22.663Z,5.25
2023-03-05T20:28:51.734Z,5.95
2023-03-05T20:31:19.185Z,5.63
2023-03-05T20:33:45.688Z,6.13
2023-03-05T20:36:12.114Z,4.45
2023-03-05T20:38:38.546Z,3.63
2023-03-05T20:41:09.342Z,2.50
2023-03-05T20:43:37.312Z,2.67
2023-03-05T20:46:04.200Z,3.33
2023-03-05T20:48:34.642Z,4.13
2023-03-05T20:51:14.644Z,3.47
2023-03-05T20:53:41.097Z,4.18
2023-03-05T20:56:07.810Z,2.95
2023-03-05T20:58:34.326Z,2.10
2023-03-05T21:01:00.858Z,2.58
2023-03-05T21:03:27.292Z,2.72
2023-03-05T21:05:53.742Z,2.95
2023-03-05T21:08:20.240Z,2.58
2023-03-05T21:10:47.647Z,3.33
2023-03-05T21:13:15.361Z,4.03
2023-03-05T21:15:41.827Z,3.20
2023-03-05T21:18:08.298Z,3.28
2023-03-05T21:20:34.770Z,3.63
2023-03-05T21:23:01.453Z,2.88
2023-03-05T21:25:31.395Z,2.83
2023-03-05T21:30:49.702Z,2.97
2023-03-05T21:35:43.429Z,2.50
2023-03-05T21:38:10.207Z,2.00
2023-03-05T21:40:38.445Z,1.52
2023-03-05T21:43:06.227Z,1.60
2023-03-05T21:45:32.704Z,2.20
2023-03-05T21:47:59.166Z,1.75
2023-03-05T21:50:26.199Z,1.63
2023-03-05T21:52:53.884Z,1.42
2023-03-05T21:55:21.889Z,1.52
2023-03-05T21:57:48.349Z,1.50
2023-03-05T22:00:16.325Z,1.52
2023-03-05T22:02:43.082Z,1.33
2023-03-05T22:05:12.620Z,1.63
2023-03-05T22:07:40.055Z,1.30
2023-03-05T22:10:07.297Z,1.80
2023-03-05T22:12:36.387Z,2.17
2023-03-05T22:15:03.030Z,2.13
2023-03-05T22:17:29.451Z,1.65
2023-03-05T22:19:56.010Z,2.10
2023-03-05T22:22:25.338Z,2.15
2023-03-05T22:24:51.801Z,2.15
2023-03-05T22:27:18.250Z,2.40
2023-03-05T22:29:46.183Z,2.30
2023-03-05T22:32:12.718Z,2.22
2023-03-05T22:34:39.172Z,2.03
2023-03-05T22:37:10.154Z,2.47
2023-03-05T22:39:36.634Z,2.70
2023-03-05T22:42:03.147Z,2.30
2023-03-05T22:44:29.594Z,2.88
2023-03-05T22:46:56.005Z,2.67
2023-03-05T22:49:22.413Z,3.13
2023-03-05T22:51:48.838Z,2.60
2023-03-05T22:54:15.267Z,2.80
2023-03-05T22:56:41.684Z,2.50
2023-03-05T22:59:08.206Z,2.92
2023-03-05T23:01:34.638Z,3.03
2023-03-05T23:04:01.176Z,3.25
2023-03-05T23:06:27.632Z,2.97
2023-03-05T23:08:54.050Z,2.70
2023-03-05T23:11:20.544Z,2.95
2023-03-05T23:13:46.989Z,2.83
2023-03-05T23:16:13.498Z,3.22
2023-03-05T23:18:39.958Z,3.13
2023-03-05T23:21:06.404Z,3.08
2023-03-05T23:23:32.803Z,3.53
2023-03-05T23:25:59.235Z,3.47
2023-03-05T23:28:25.659Z,2.75
2023-03-05T23:30:52.150Z,3.47
2023-03-05T23:33:22.478Z,3.47
2023-03-05T23:35:56.374Z,3.08
2023-03-05T23:38:23.013Z,3.45
2023-03-05T23:40:50.925Z,3.50
2023-03-05T23:43:17.846Z,3.50
2023-03-05T23:45:45.761Z,3.47
2023-03-05T23:48:12.219Z,3.50
2023-03-05T23:50:40.189Z,3.45
2023-03-05T23:53:06.937Z,3.63
2023-03-05T23:55:34.248Z,3.35
2023-03-05T23:58:00.875Z,3.70
